Mburucuya, Argentina
Current Conditions -  °F | °C
As of 8:00 AM on Saturday 20 Dec 2014 (Local Time) from SARC Reporting Station
Clear Clear  
Wind Chill: 82°   Ceiling: Unl
Heat Index: 88°   Visibility: 6mi
Dew Point: 73°   Wind: 13mph
Humidity: 74%   Direction: 20°NNE
Pressure: 29.56"   Gusts: NA
Location:  28.05°S, 58.23°W
Report Text: SARC 201100Z 02011KT CAVOK 28/23 Q1001
Loading
Personal Weather Stations






























Interactive Weather Map New forecast layout! Learn more

10-Day Weather Forecast

Advertisements
Track Severe Weather on mobile